Time;durP1;ratioP1;P1;durP2;ratioP2;P2;SDS_P1;SDS_P2;PMS_P1;PMS_P2;Temp;Humidity;BMP_temperature;BMP_pressure;BME280_temperature;BME280_humidity;BME280_pressure;Samples;Min_cycle;Max_cycle;Signal;HPM_P1;HPM_P2
2022/07/18 00:01:56;;;;;;;5.43;3.28;;;;;;;;;;5089292;28;20079;-73
2022/07/18 00:04:23;;;;;;;7.07;3.30;;;;;;;;;;5088748;28;20051;-74
2022/07/18 00:06:49;;;;;;;6.95;3.65;;;;;;;;;;5094164;28;20378;-74
2022/07/18 00:09:15;;;;;;;5.28;3.80;;;;;;;;;;5093223;28;20559;-74
2022/07/18 00:11:41;;;;;;;6.10;4.05;;;;;;;;;;5098720;27;20048;-74
2022/07/18 00:14:07;;;;;;;4.50;3.40;;;;;;;;;;5102546;27;20044;-74
2022/07/18 00:16:34;;;;;;;5.18;3.78;;;;;;;;;;5090949;28;20043;-74
2022/07/18 00:19:02;;;;;;;7.65;4.32;;;;;;;;;;5089782;28;20071;-74
2022/07/18 00:21:28;;;;;;;9.43;5.00;;;;;;;;;;5093053;28;21047;-74
2022/07/18 00:23:54;;;;;;;5.72;4.45;;;;;;;;;;5093301;28;20125;-74
2022/07/18 00:26:20;;;;;;;6.90;4.30;;;;;;;;;;5090717;28;20044;-74
2022/07/18 00:28:46;;;;;;;6.40;4.25;;;;;;;;;;5107251;27;20032;-74
2022/07/18 00:31:13;;;;;;;8.98;4.53;;;;;;;;;;5103216;28;20044;-74
2022/07/18 00:33:39;;;;;;;7.07;4.03;;;;;;;;;;5093165;28;20039;-74
2022/07/18 00:36:05;;;;;;;8.50;4.13;;;;;;;;;;5097999;28;20661;-74
2022/07/18 00:38:31;;;;;;;8.43;4.43;;;;;;;;;;5097429;28;20055;-74
2022/07/18 00:40:57;;;;;;;7.20;5.10;;;;;;;;;;5089418;28;20043;-74
2022/07/18 00:43:23;;;;;;;6.38;4.07;;;;;;;;;;5088551;28;20075;-74
2022/07/18 00:45:52;;;;;;;6.88;4.30;;;;;;;;;;5094010;28;20052;-74
2022/07/18 00:48:19;;;;;;;9.10;5.13;;;;;;;;;;5095701;28;20095;-74
2022/07/18 00:50:45;;;;;;;4.57;3.70;;;;;;;;;;5070695;28;20036;-74
2022/07/18 00:53:11;;;;;;;7.20;4.50;;;;;;;;;;5089555;28;20067;-74
2022/07/18 00:55:38;;;;;;;6.35;4.28;;;;;;;;;;5091361;28;20050;-74
2022/07/18 00:58:04;;;;;;;8.27;4.50;;;;;;;;;;5098022;28;20161;-74
2022/07/18 01:03:16;;;;;;;8.00;4.95;;;;;;;;;;5091214;28;20039;-74
2022/07/18 01:05:42;;;;;;;6.63;4.38;;;;;;;;;;5091523;28;20538;-74
2022/07/18 01:08:08;;;;;;;7.13;4.57;;;;;;;;;;5085254;28;20040;-74
2022/07/18 01:10:34;;;;;;;6.97;4.03;;;;;;;;;;5072047;28;20048;-73
2022/07/18 01:13:01;;;;;;;7.15;4.35;;;;;;;;;;5093586;28;20118;-74
2022/07/18 01:15:27;;;;;;;7.97;4.53;;;;;;;;;;5093685;28;20047;-74
2022/07/18 01:17:53;;;;;;;6.47;4.15;;;;;;;;;;5097592;28;20040;-74
2022/07/18 01:20:19;;;;;;;8.10;4.78;;;;;;;;;;5108640;28;20051;-74
2022/07/18 01:22:45;;;;;;;6.07;4.45;;;;;;;;;;5097425;28;20048;-73
2022/07/18 01:25:16;;;;;;;7.93;4.03;;;;;;;;;;5105216;28;20044;-74
2022/07/18 01:27:43;;;;;;;7.10;5.22;;;;;;;;;;5093536;28;20184;-73
2022/07/18 01:30:09;;;;;;;11.05;4.60;;;;;;;;;;5075690;28;20040;-73
2022/07/18 01:32:35;;;;;;;7.72;4.72;;;;;;;;;;5087173;28;20132;-74
2022/07/18 01:35:01;;;;;;;5.32;4.40;;;;;;;;;;5091007;28;20044;-74
2022/07/18 01:37:27;;;;;;;8.35;4.13;;;;;;;;;;5105224;28;20036;-73
2022/07/18 01:39:53;;;;;;;5.72;3.70;;;;;;;;;;5088890;28;20405;-74
2022/07/18 01:42:20;;;;;;;10.60;5.35;;;;;;;;;;5089000;28;20043;-73
2022/07/18 01:44:47;;;;;;;8.10;5.03;;;;;;;;;;5104142;28;20280;-73
2022/07/18 01:47:14;;;;;;;8.68;4.60;;;;;;;;;;5093076;28;20051;-73
2022/07/18 01:49:40;;;;;;;7.60;4.07;;;;;;;;;;5080871;28;20047;-73
2022/07/18 01:52:07;;;;;;;13.45;5.43;;;;;;;;;;5074209;28;20121;-73
2022/07/18 01:54:34;;;;;;;9.57;4.45;;;;;;;;;;5092586;28;20036;-73
2022/07/18 01:57:01;;;;;;;7.95;4.72;;;;;;;;;;5100677;28;20039;-73
2022/07/18 01:59:28;;;;;;;6.78;4.68;;;;;;;;;;5095228;28;20028;-73
2022/07/18 02:01:54;;;;;;;7.25;4.43;;;;;;;;;;5092372;28;20043;-73
2022/07/18 02:04:58;;;;;;;8.73;4.50;;;;;;;;;;5094257;28;20043;-73
2022/07/18 02:07:06;;;;;;;9.20;4.10;;;;;;;;;;5093089;28;20054;-73
2022/07/18 02:09:32;;;;;;;8.10;5.03;;;;;;;;;;5090443;28;20043;-73
2022/07/18 02:11:59;;;;;;;8.07;4.93;;;;;;;;;;5094260;28;20040;-73
2022/07/18 02:14:25;;;;;;;11.20;5.40;;;;;;;;;;5095935;28;20044;-74
2022/07/18 02:16:51;;;;;;;5.82;3.80;;;;;;;;;;5093368;28;20075;-73
2022/07/18 02:19:17;;;;;;;7.07;4.43;;;;;;;;;;5092507;28;20042;-73
2022/07/18 02:21:43;;;;;;;7.13;4.75;;;;;;;;;;5107522;27;20041;-73
2022/07/18 02:24:09;;;;;;;6.85;4.75;;;;;;;;;;5091514;28;20049;-73
2022/07/18 02:26:35;;;;;;;7.60;4.57;;;;;;;;;;5090204;28;20040;-73
2022/07/18 02:29:01;;;;;;;6.40;4.00;;;;;;;;;;5103943;27;20481;-73
2022/07/18 02:31:27;;;;;;;6.13;4.70;;;;;;;;;;5101350;27;20047;-73
2022/07/18 02:33:53;;;;;;;6.63;4.10;;;;;;;;;;5088763;28;20409;-73
2022/07/18 02:36:20;;;;;;;6.38;4.57;;;;;;;;;;5066481;28;20046;-73
2022/07/18 02:38:46;;;;;;;7.22;4.35;;;;;;;;;;5096461;28;20040;-73
2022/07/18 02:41:12;;;;;;;7.90;4.90;;;;;;;;;;5091404;28;20764;-73
2022/07/18 02:43:38;;;;;;;8.02;4.72;;;;;;;;;;5093366;28;20274;-73
2022/07/18 02:46:04;;;;;;;7.63;4.90;;;;;;;;;;5094643;28;20190;-73
2022/07/18 02:48:30;;;;;;;8.02;4.97;;;;;;;;;;5071695;28;20046;-73
2022/07/18 02:50:56;;;;;;;6.72;4.20;;;;;;;;;;5093818;28;20481;-73
2022/07/18 02:53:23;;;;;;;9.35;4.75;;;;;;;;;;5095060;28;20039;-73
2022/07/18 02:55:52;;;;;;;7.10;4.38;;;;;;;;;;5095499;28;20046;-73
2022/07/18 02:58:18;;;;;;;6.47;5.10;;;;;;;;;;5071641;28;20376;-73
2022/07/18 03:00:44;;;;;;;9.68;6.35;;;;;;;;;;5090739;28;20240;-73
2022/07/18 03:03:10;;;;;;;10.32;4.88;;;;;;;;;;5077947;28;20111;-73
2022/07/18 03:05:36;;;;;;;6.20;4.60;;;;;;;;;;5096294;28;20212;-73
2022/07/18 03:08:03;;;;;;;9.52;4.97;;;;;;;;;;5095039;28;20559;-73
2022/07/18 03:10:29;;;;;;;8.68;4.93;;;;;;;;;;5091306;28;20028;-73
2022/07/18 03:12:55;;;;;;;8.85;5.30;;;;;;;;;;5091709;28;20040;-72
2022/07/18 03:15:21;;;;;;;8.40;6.28;;;;;;;;;;5109703;27;20517;-73
2022/07/18 03:17:47;;;;;;;8.18;4.38;;;;;;;;;;5097987;28;20032;-73
2022/07/18 03:20:13;;;;;;;7.65;5.22;;;;;;;;;;5089924;28;20050;-73
2022/07/18 03:22:39;;;;;;;9.02;5.35;;;;;;;;;;5090577;28;20036;-72
2022/07/18 03:25:06;;;;;;;8.30;5.00;;;;;;;;;;5089467;28;20044;-72
2022/07/18 03:27:32;;;;;;;8.88;4.63;;;;;;;;;;5073876;28;20040;-73
2022/07/18 03:29:59;;;;;;;9.73;5.25;;;;;;;;;;5092792;28;20031;-72
2022/07/18 03:32:25;;;;;;;9.30;5.53;;;;;;;;;;5089225;28;20044;-72
2022/07/18 03:34:51;;;;;;;9.43;4.95;;;;;;;;;;5100876;27;20093;-72
2022/07/18 03:37:17;;;;;;;7.90;5.28;;;;;;;;;;5093859;28;20069;-72
2022/07/18 03:39:44;;;;;;;7.22;5.03;;;;;;;;;;5089035;28;20072;-73
2022/07/18 03:42:10;;;;;;;8.40;4.85;;;;;;;;;;5082772;28;20056;-72
2022/07/18 03:44:36;;;;;;;8.23;5.15;;;;;;;;;;5102661;27;20464;-72
2022/07/18 03:47:02;;;;;;;8.13;4.95;;;;;;;;;;5085462;28;20044;-72
2022/07/18 03:49:28;;;;;;;10.07;5.55;;;;;;;;;;5101653;27;20109;-72
2022/07/18 03:51:55;;;;;;;7.20;4.85;;;;;;;;;;5091026;28;20483;-72
2022/07/18 03:54:22;;;;;;;8.45;5.32;;;;;;;;;;5088209;28;20493;-72
2022/07/18 03:56:48;;;;;;;9.25;4.78;;;;;;;;;;5088043;28;20393;-72
2022/07/18 03:59:14;;;;;;;10.07;5.47;;;;;;;;;;5089808;28;20223;-72
2022/07/18 04:01:40;;;;;;;8.77;5.00;;;;;;;;;;5085057;28;20090;-72
2022/07/18 04:04:06;;;;;;;7.55;4.28;;;;;;;;;;5093361;28;20158;-72
2022/07/18 04:06:32;;;;;;;9.93;5.65;;;;;;;;;;5086914;28;20482;-72
2022/07/18 04:08:58;;;;;;;8.82;5.45;;;;;;;;;;5106237;27;20036;-72
2022/07/18 04:11:25;;;;;;;5.75;4.55;;;;;;;;;;5088902;28;20036;-72
2022/07/18 04:13:52;;;;;;;8.18;4.45;;;;;;;;;;5101939;28;20046;-72
2022/07/18 04:16:19;;;;;;;7.63;5.07;;;;;;;;;;5084950;28;20170;-73
2022/07/18 04:18:46;;;;;;;8.20;5.03;;;;;;;;;;5106135;27;20043;-72
2022/07/18 04:21:13;;;;;;;9.98;4.78;;;;;;;;;;5085604;28;20032;-73
2022/07/18 04:23:40;;;;;;;7.38;4.60;;;;;;;;;;5087615;28;20383;-72
2022/07/18 04:26:06;;;;;;;8.35;5.20;;;;;;;;;;5103804;27;20551;-72
2022/07/18 04:28:32;;;;;;;9.95;4.63;;;;;;;;;;5092133;28;20043;-72
2022/07/18 04:30:58;;;;;;;6.85;4.47;;;;;;;;;;5085571;28;20047;-73
2022/07/18 04:33:25;;;;;;;7.78;4.70;;;;;;;;;;5093329;28;20035;-73
2022/07/18 04:35:51;;;;;;;8.18;5.30;;;;;;;;;;5094421;28;20439;-73
2022/07/18 04:38:17;;;;;;;9.93;5.28;;;;;;;;;;5097265;28;20043;-72
2022/07/18 04:40:43;;;;;;;8.93;4.88;;;;;;;;;;5073778;28;20040;-72
2022/07/18 04:43:10;;;;;;;8.07;5.07;;;;;;;;;;5072056;28;20050;-72
2022/07/18 04:45:36;;;;;;;7.25;4.30;;;;;;;;;;5075845;28;20201;-73
2022/07/18 04:48:06;;;;;;;9.80;5.60;;;;;;;;;;5093046;28;20039;-72
2022/07/18 04:50:32;;;;;;;9.00;4.88;;;;;;;;;;5089122;28;20063;-72
2022/07/18 04:52:59;;;;;;;9.35;4.93;;;;;;;;;;5100807;28;20528;-73
2022/07/18 04:55:25;;;;;;;7.72;5.05;;;;;;;;;;5087149;28;20054;-73
2022/07/18 04:57:52;;;;;;;7.18;5.28;;;;;;;;;;5096616;28;20410;-73
2022/07/18 05:00:20;;;;;;;8.25;5.22;;;;;;;;;;5093675;28;20509;-73
2022/07/18 05:02:47;;;;;;;6.75;4.60;;;;;;;;;;5101708;28;20048;-73
2022/07/18 05:05:15;;;;;;;7.10;4.05;;;;;;;;;;5107569;28;20045;-72
2022/07/18 05:07:42;;;;;;;7.07;4.57;;;;;;;;;;5091487;28;20088;-73
2022/07/18 05:10:09;;;;;;;9.93;5.32;;;;;;;;;;5093280;28;20036;-72
2022/07/18 05:12:36;;;;;;;9.73;5.18;;;;;;;;;;5088720;28;20040;-73
2022/07/18 05:15:05;;;;;;;7.35;4.45;;;;;;;;;;5091422;28;20036;-73
2022/07/18 05:17:31;;;;;;;9.75;5.03;;;;;;;;;;5087375;28;20048;-73
2022/07/18 05:19:57;;;;;;;8.38;4.75;;;;;;;;;;5089853;28;20123;-73
2022/07/18 05:22:23;;;;;;;7.03;4.22;;;;;;;;;;5092941;28;20143;-73
2022/07/18 05:24:50;;;;;;;7.55;4.30;;;;;;;;;;5106742;28;20040;-73
2022/07/18 05:27:16;;;;;;;6.35;4.10;;;;;;;;;;5096143;28;20047;-72
2022/07/18 05:29:43;;;;;;;8.48;4.30;;;;;;;;;;5096938;28;20044;-72
2022/07/18 05:32:10;;;;;;;8.65;4.72;;;;;;;;;;5097506;28;20036;-73
2022/07/18 05:34:36;;;;;;;8.93;5.75;;;;;;;;;;5092382;28;20032;-73
2022/07/18 05:37:02;;;;;;;8.63;4.72;;;;;;;;;;5095176;28;20500;-73
2022/07/18 05:39:29;;;;;;;7.57;4.40;;;;;;;;;;5099743;28;20052;-73
2022/07/18 05:41:55;;;;;;;8.45;4.97;;;;;;;;;;5091370;28;20040;-72
2022/07/18 05:44:21;;;;;;;7.53;4.38;;;;;;;;;;5091932;28;20056;-73
2022/07/18 05:46:47;;;;;;;6.70;3.75;;;;;;;;;;5098421;28;20036;-72
2022/07/18 05:49:16;;;;;;;12.43;4.15;;;;;;;;;;5091562;28;20869;-72
2022/07/18 05:51:43;;;;;;;4.80;3.78;;;;;;;;;;5078589;28;20065;-72
2022/07/18 05:54:09;;;;;;;8.55;4.47;;;;;;;;;;5097088;28;20540;-73
2022/07/18 05:56:35;;;;;;;8.10;4.20;;;;;;;;;;5110219;27;20036;-73
2022/07/18 05:59:01;;;;;;;8.43;4.50;;;;;;;;;;5093841;28;20085;-72
2022/07/18 06:01:27;;;;;;;6.07;3.97;;;;;;;;;;5092828;28;20036;-72
2022/07/18 06:03:53;;;;;;;8.38;4.57;;;;;;;;;;5097141;28;20051;-72
2022/07/18 06:06:20;;;;;;;8.60;4.47;;;;;;;;;;5090897;28;20036;-72
2022/07/18 06:08:46;;;;;;;8.68;5.40;;;;;;;;;;5111258;27;20035;-72
2022/07/18 06:11:12;;;;;;;7.28;4.55;;;;;;;;;;5077970;28;20540;-72
2022/07/18 06:13:39;;;;;;;9.07;4.63;;;;;;;;;;5093631;28;20401;-72
2022/07/18 06:16:06;;;;;;;9.32;4.50;;;;;;;;;;5092562;28;20031;-72
2022/07/18 06:18:34;;;;;;;6.60;4.45;;;;;;;;;;5099935;28;20040;-72
2022/07/18 06:21:01;;;;;;;8.07;4.43;;;;;;;;;;5090373;28;20067;-72
2022/07/18 06:23:28;;;;;;;7.60;4.18;;;;;;;;;;5110461;27;20140;-73
2022/07/18 06:25:55;;;;;;;7.32;4.28;;;;;;;;;;5105710;28;20048;-73
2022/07/18 06:28:21;;;;;;;8.00;3.95;;;;;;;;;;5095642;28;20503;-72
2022/07/18 06:30:47;;;;;;;7.05;4.57;;;;;;;;;;5092501;28;20032;-72
2022/07/18 06:33:14;;;;;;;9.88;4.90;;;;;;;;;;5088187;28;20039;-72
2022/07/18 06:35:40;;;;;;;6.63;5.15;;;;;;;;;;5093720;28;20062;-73
2022/07/18 06:38:06;;;;;;;8.52;4.55;;;;;;;;;;5096087;28;20065;-73
2022/07/18 06:40:32;;;;;;;7.05;3.92;;;;;;;;;;5095133;28;20036;-72
2022/07/18 06:42:59;;;;;;;8.20;4.53;;;;;;;;;;5091269;28;20024;-72
2022/07/18 06:45:25;;;;;;;9.68;4.10;;;;;;;;;;5096355;28;20519;-72
2022/07/18 06:47:51;;;;;;;7.07;3.97;;;;;;;;;;5098091;28;20046;-73
2022/07/18 06:50:17;;;;;;;5.30;3.53;;;;;;;;;;5097563;28;20429;-72
2022/07/18 06:52:44;;;;;;;7.00;4.40;;;;;;;;;;5085977;28;20122;-72
2022/07/18 06:55:11;;;;;;;6.82;3.88;;;;;;;;;;5086289;28;20056;-73
2022/07/18 06:57:38;;;;;;;6.25;3.47;;;;;;;;;;5090914;28;20093;-72
2022/07/18 07:00:06;;;;;;;6.65;3.85;;;;;;;;;;5098555;27;20052;-72
2022/07/18 07:02:32;;;;;;;8.20;4.00;;;;;;;;;;5096334;28;20536;-73
2022/07/18 07:04:58;;;;;;;8.05;3.55;;;;;;;;;;5093412;28;20040;-73
2022/07/18 07:07:24;;;;;;;6.22;3.33;;;;;;;;;;5077263;28;20076;-73
2022/07/18 07:09:50;;;;;;;6.70;3.92;;;;;;;;;;5085155;28;20396;-73
2022/07/18 07:12:16;;;;;;;5.20;3.30;;;;;;;;;;5089662;28;20055;-73
2022/07/18 07:14:43;;;;;;;5.60;3.25;;;;;;;;;;5106141;27;20557;-73
2022/07/18 07:17:09;;;;;;;5.50;2.47;;;;;;;;;;5078593;28;20047;-73
2022/07/18 07:19:35;;;;;;;5.22;2.88;;;;;;;;;;5075993;28;20036;-75
2022/07/18 07:22:01;;;;;;;5.43;2.65;;;;;;;;;;5095032;28;20032;-75
2022/07/18 07:24:27;;;;;;;6.22;2.88;;;;;;;;;;5090516;28;20079;-80
2022/07/18 07:26:53;;;;;;;8.27;2.85;;;;;;;;;;5092936;28;20043;-74
2022/07/18 07:29:20;;;;;;;6.20;3.00;;;;;;;;;;5097419;28;20090;-73
2022/07/18 07:31:46;;;;;;;6.18;3.22;;;;;;;;;;5094501;28;20085;-72
2022/07/18 07:34:12;;;;;;;6.93;3.65;;;;;;;;;;5092670;28;20040;-73
2022/07/18 07:36:38;;;;;;;4.55;3.03;;;;;;;;;;5091493;28;20048;-74
2022/07/18 07:39:05;;;;;;;7.38;2.50;;;;;;;;;;5056694;28;20050;-74
2022/07/18 07:41:31;;;;;;;5.78;3.20;;;;;;;;;;5091819;28;20397;-75
2022/07/18 07:43:57;;;;;;;7.28;2.67;;;;;;;;;;5094857;28;20185;-73
2022/07/18 07:46:25;;;;;;;5.88;2.83;;;;;;;;;;5094978;28;20048;-74
2022/07/18 07:48:51;;;;;;;4.45;2.67;;;;;;;;;;5094510;28;20300;-78
2022/07/18 07:51:17;;;;;;;6.65;3.33;;;;;;;;;;5090638;28;20094;-80
2022/07/18 07:53:43;;;;;;;6.65;2.72;;;;;;;;;;5095189;28;20040;-76
2022/07/18 07:56:10;;;;;;;7.22;3.03;;;;;;;;;;5071792;28;20048;-74
2022/07/18 07:58:37;;;;;;;4.18;3.13;;;;;;;;;;5095250;28;20039;-72
2022/07/18 08:01:03;;;;;;;4.72;2.70;;;;;;;;;;5089802;28;20047;-74
2022/07/18 08:03:30;;;;;;;6.00;2.80;;;;;;;;;;5089348;28;20039;-72
2022/07/18 08:05:56;;;;;;;5.78;3.25;;;;;;;;;;5092208;28;20066;-72
2022/07/18 08:08:25;;;;;;;4.35;2.50;;;;;;;;;;5096876;28;20115;-72
2022/07/18 08:10:53;;;;;;;5.57;2.60;;;;;;;;;;5090967;28;20048;-72
2022/07/18 08:13:19;;;;;;;7.90;3.10;;;;;;;;;;5090748;28;20267;-72
2022/07/18 08:15:45;;;;;;;5.55;2.50;;;;;;;;;;5071896;28;20102;-72
2022/07/18 08:18:11;;;;;;;6.25;2.50;;;;;;;;;;5091962;28;20036;-72
2022/07/18 08:20:37;;;;;;;4.97;2.60;;;;;;;;;;5095556;28;20039;-72
2022/07/18 08:23:04;;;;;;;4.80;2.40;;;;;;;;;;5094194;28;20044;-72
2022/07/18 08:25:31;;;;;;;8.07;2.67;;;;;;;;;;5073012;28;20569;-72
2022/07/18 08:27:58;;;;;;;10.93;2.55;;;;;;;;;;5088675;28;20371;-72
2022/07/18 08:30:23;;;;;;;3.55;2.00;;;21.10;95.50;;;;;;5092477;28;20417;-73
2022/07/18 08:32:50;;;;;;;4.43;2.70;;;;;;;;;;5107592;27;20044;-72
2022/07/18 08:35:16;;;;;;;4.43;2.85;;;;;;;;;;5092776;28;20047;-72
2022/07/18 08:37:42;;;;;;;5.80;2.28;;;21.80;94.10;;;;;;5077020;28;20370;-72
2022/07/18 08:40:09;;;;;;;5.82;2.22;;;21.90;92.60;;;;;;5095310;28;20039;-72
2022/07/18 08:42:35;;;;;;;5.97;2.38;;;21.90;92.70;;;;;;5097092;28;20036;-72
2022/07/18 08:45:01;;;;;;;5.00;2.15;;;21.90;92.10;;;;;;5092003;28;20200;-71
2022/07/18 08:47:29;;;;;;;8.38;2.83;;;22.00;92.00;;;;;;5087876;28;20036;-72
2022/07/18 08:49:55;;;;;;;5.85;2.67;;;22.00;91.80;;;;;;5085059;28;20477;-72
2022/07/18 08:52:21;;;;;;;6.20;2.65;;;;;;;;;;5093699;28;20201;-72
2022/07/18 08:54:50;;;;;;;8.60;2.50;;;;;;;;;;5099159;28;20055;-71
2022/07/18 08:57:17;;;;;;;8.05;3.30;;;;;;;;;;5100762;28;20048;-72
2022/07/18 08:59:43;;;;;;;8.88;2.25;;;;;;;;;;5092212;28;20218;-72
2022/07/18 09:02:09;;;;;;;5.47;2.53;;;;;;;;;;5094596;28;20036;-72
2022/07/18 09:04:39;;;;;;;4.78;2.35;;;;;;;;;;5096094;28;20481;-72
2022/07/18 09:07:08;;;;;;;4.57;2.30;;;;;;;;;;5078298;28;20092;-72
2022/07/18 09:09:35;;;;;;;4.53;2.25;;;;;;;;;;5077657;28;20043;-71
2022/07/18 09:12:10;;;;;;;5.72;2.90;;;;;;;;;;5092479;28;20161;-71
2022/07/18 09:14:40;;;;;;;4.57;2.58;;;;;;;;;;5104147;27;20040;-73
2022/07/18 09:17:10;;;;;;;6.90;2.17;;;;;;;;;;5096178;28;20089;-72
2022/07/18 09:19:37;;;;;;;5.15;2.35;;;;;;;;;;5095015;28;20040;-72
2022/07/18 09:22:18;;;;;;;8.73;2.55;;;;;;;;;;5091237;28;20079;-72
2022/07/18 09:25:04;;;;;;;6.20;3.00;;;;;;;;;;5097355;28;20043;-72
2022/07/18 09:27:33;;;;;;;4.75;2.40;;;;;;;;;;5092337;28;20043;-72
2022/07/18 09:30:18;;;;;;;4.72;2.55;;;;;;;;;;5092922;28;20032;-72
2022/07/18 09:32:46;;;;;;;6.93;2.83;;;;;;;;;;5098076;28;20036;-72
2022/07/18 09:35:17;;;;;;;6.18;2.47;;;;;;;;;;5076032;28;20506;-72
2022/07/18 09:38:12;;;;;;;3.35;2.45;;;;;;;;;;5088886;28;20051;-72
2022/07/18 09:40:40;;;;;;;6.50;2.10;;;;;;;;;;5078111;28;20079;-72
2022/07/18 09:43:07;;;;;;;8.02;2.10;;;;;;;;;;5096735;28;20043;-72
2022/07/18 09:45:41;;;;;;;7.63;2.45;;;;;;;;;;5084885;28;20520;-72
2022/07/18 09:48:10;;;;;;;5.47;2.72;;;;;;;;;;5095451;28;20310;-72
2022/07/18 09:51:03;;;;;;;9.82;2.40;;;;;;;;;;5093589;28;20047;-72
2022/07/18 09:53:38;;;;;;;5.40;2.15;;;;;;;;;;5087834;28;20112;-71
2022/07/18 09:56:06;;;;;;;3.97;2.10;;;;;;;;;;5095093;28;20051;-72
2022/07/18 09:58:34;;;;;;;6.68;2.65;;;;;;;;;;5097575;28;20115;-72
2022/07/18 10:01:01;;;;;;;5.03;2.20;;;;;;;;;;5098508;27;20039;-71
2022/07/18 10:03:27;;;;;;;5.63;2.42;;;;;;;;;;5095930;28;20153;-72
2022/07/18 10:05:54;;;;;;;5.88;2.40;;;;;;;;;;5095648;28;20040;-71
2022/07/18 10:08:22;;;;;;;3.55;1.90;;;;;;;;;;5094091;28;20048;-72
2022/07/18 10:10:49;;;;;;;4.75;2.20;;;;;;;;;;5097435;28;20039;-72
2022/07/18 10:13:15;;;;;;;3.53;2.00;;;;;;;;;;5094630;28;20122;-72
2022/07/18 10:15:42;;;;;;;5.47;2.13;;;;;;;;;;5091677;28;20048;-72
2022/07/18 10:18:10;;;;;;;7.28;2.17;;;;;;;;;;5094495;28;20432;-73
2022/07/18 10:20:36;;;;;;;4.57;2.15;;;;;;;;;;5099102;27;20043;-73
2022/07/18 10:23:08;;;;;;;3.83;2.00;;;;;;;;;;5096851;28;20032;-72
2022/07/18 10:25:35;;;;;;;4.10;2.55;;;;;;;;;;5090234;28;20043;-72
2022/07/18 10:28:04;;;;;;;3.80;2.05;;;;;;;;;;5091507;28;20046;-72
2022/07/18 10:30:32;;;;;;;5.05;2.30;;;;;;;;;;5093554;28;20430;-72
2022/07/18 10:32:58;;;;;;;6.53;2.38;;;;;;;;;;5090844;28;20043;-72
2022/07/18 10:35:47;;;;;;;3.28;1.80;;;;;;;;;;5092416;28;20123;-73
2022/07/18 10:38:20;;;;;;;4.57;2.10;;;;;;;;;;5092604;28;20045;-72
2022/07/18 10:41:08;;;;;;;3.08;1.88;;;;;;;;;;5093609;28;20048;-73
2022/07/18 10:43:36;;;;;;;4.50;1.98;;;;;;;;;;5090422;28;20044;-72
2022/07/18 10:46:04;;;;;;;3.30;2.00;;;;;;;;;;5099518;28;20043;-71
2022/07/18 10:48:34;;;;;;;3.72;2.33;;;;;;;;;;5089793;28;20040;-73
2022/07/18 10:51:01;;;;;;;7.80;2.88;;;;;;;;;;5084639;28;20217;-72
2022/07/18 10:53:46;;;;;;;4.57;2.13;;;;;;;;;;5097534;28;20044;-72
2022/07/18 10:56:12;;;;;;;4.05;2.35;;;;;;;;;;5088044;28;20059;-72
2022/07/18 10:58:40;;;;;;;4.70;2.63;;;;;;;;;;5091368;28;20040;-73
2022/07/18 11:01:10;;;;;;;7.70;2.40;;;;;;;;;;5092235;28;20190;-72
2022/07/18 11:03:36;;;;;;;6.63;2.67;;;;;;;;;;5096072;28;20134;-72
2022/07/18 11:06:03;;;;;;;6.20;2.97;;;;;;;;;;5091860;28;20040;-73
2022/07/18 11:08:31;;;;;;;6.93;3.28;;;;;;;;;;5091173;28;20044;-72
2022/07/18 11:11:06;;;;;;;9.20;3.92;;;;;;;;;;5095366;28;20194;-73
2022/07/18 11:13:36;;;;;;;7.30;2.88;;;;;;;;;;5093355;28;20039;-73
2022/07/18 11:16:16;;;;;;;5.05;2.45;;;;;;;;;;5086445;28;20051;-73
2022/07/18 11:18:42;;;;;;;5.93;4.15;;;;;;;;;;5101184;27;20122;-72
2022/07/18 11:21:27;;;;;;;5.28;3.17;;;;;;;;;;5088533;28;20105;-73
2022/07/18 11:23:54;;;;;;;7.75;3.20;;;;;;;;;;5090470;28;20405;-73
2022/07/18 11:26:23;;;;;;;5.13;2.67;;;22.10;91.30;;;;;;5091147;28;20048;-72
2022/07/18 11:28:57;;;;;;;4.90;2.67;;;;;;;;;;5108651;27;20044;-73
2022/07/18 11:31:23;;;;;;;6.40;2.53;;;;;;;;;;5093459;28;20036;-72
2022/07/18 11:33:50;;;;;;;5.03;2.80;;;;;;;;;;5091267;28;20039;-72
2022/07/18 11:36:18;;;;;;;4.82;2.33;;;;;;;;;;5088648;28;20032;-73
2022/07/18 11:38:51;;;;;;;6.60;3.03;;;;;;;;;;5090817;28;20156;-73
2022/07/18 11:41:18;;;;;;;7.15;2.45;;;;;;;;;;5083559;28;20036;-73
2022/07/18 11:43:45;;;;;;;6.15;2.30;;;;;;;;;;5090607;28;20495;-72
2022/07/18 11:46:13;;;;;;;6.82;2.63;;;;;;;;;;5086218;28;20083;-72
2022/07/18 11:48:40;;;;;;;4.78;2.28;;;;;;;;;;5088626;28;20040;-72
2022/07/18 11:51:16;;;;;;;5.05;2.08;;;;;;;;;;5099322;27;20118;-72
2022/07/18 11:53:50;;;;;;;4.72;1.90;;;;;;;;;;5089732;28;20115;-72
2022/07/18 11:56:17;;;;;;;3.50;2.30;;;;;;;;;;5085128;28;20496;-73
2022/07/18 11:58:44;;;;;;;7.07;2.78;;;;;;;;;;5081852;28;20067;-72
2022/07/18 12:01:11;;;;;;;3.80;2.45;;;;;;;;;;5073665;28;20042;-72
2022/07/18 12:03:40;;;;;;;4.97;2.40;;;;;;;;;;5087167;28;20043;-72
2022/07/18 12:06:13;;;;;;;5.43;2.58;;;;;;;;;;5088898;28;20044;-72
2022/07/18 12:08:41;;;;;;;5.97;2.33;;;;;;;;;;5084345;28;20044;-72
2022/07/18 12:11:12;;;;;;;4.32;2.42;;;;;;;;;;5076450;28;20045;-72
2022/07/18 12:13:41;;;;;;;4.50;2.45;;;;;;;;;;5087908;28;20063;-72
2022/07/18 12:16:07;;;;;;;5.45;2.97;;;;;;;;;;5104903;28;21407;-72
2022/07/18 12:18:33;;;;;;;4.03;2.53;;;;;;;;;;5095372;28;20504;-72
2022/07/18 12:21:09;;;;;;;6.00;2.47;;;;;;;;;;5086133;28;20094;-72
2022/07/18 12:23:35;;;;;;;6.18;2.97;;;;;;;;;;5077564;28;20040;-72
2022/07/18 12:26:01;;;;;;;4.30;2.15;;;;;;;;;;5090112;28;20040;-72
2022/07/18 12:28:28;;;;;;;4.65;2.47;;;;;;;;;;5090244;28;20123;-72
2022/07/18 12:30:55;;;;;;;4.20;2.33;;;;;;;;;;5070283;28;20115;-73
2022/07/18 12:33:21;;;;;;;3.80;2.08;;;;;;;;;;5094491;28;20489;-73
2022/07/18 12:35:55;;;;;;;4.35;2.60;;;;;;;;;;5094605;28;20485;-72
2022/07/18 12:38:21;;;;;;;4.25;2.70;;;;;;;;;;5090025;28;20032;-73
2022/07/18 12:40:57;;;;;;;4.97;2.78;;;;;;;;;;5092882;28;20028;-73
2022/07/18 12:43:24;;;;;;;4.82;2.50;;;;;;;;;;5089834;28;20047;-72
2022/07/18 12:45:50;;;;;;;6.38;2.45;;;25.90;67.00;;;;;;5091847;28;20051;-73
2022/07/18 12:48:17;;;;;;;7.22;2.65;;;;;;;;;;5095042;28;20054;-72
2022/07/18 12:50:44;;;;;;;5.70;2.22;;;26.80;62.10;;;;;;5090276;28;20040;-73
2022/07/18 12:53:10;;;;;;;4.53;2.40;;;;;;;;;;5091830;28;20400;-73
2022/07/18 12:55:37;;;;;;;5.95;2.10;;;;;;;;;;5083263;28;20087;-72
2022/07/18 12:58:03;;;;;;;5.03;2.65;;;;;;;;;;5092814;28;20035;-72
2022/07/18 13:00:30;;;;;;;6.70;2.33;;;;;;;;;;5093875;28;20059;-73
2022/07/18 13:02:57;;;;;;;3.95;2.40;;;;;;;;;;5103982;28;20131;-72
2022/07/18 13:05:28;;;;;;;6.72;2.67;;;;;;;;;;5095179;28;20044;-73
2022/07/18 13:07:54;;;;;;;4.70;2.67;;;;;;;;;;5091082;28;20028;-72
2022/07/18 13:10:20;;;;;;;4.65;2.97;;;;;;;;;;5088976;28;20677;-72
2022/07/18 13:12:47;;;;;;;4.75;2.95;;;;;;;;;;5089993;28;20433;-72
2022/07/18 13:15:13;;;;;;;5.38;2.92;;;;;;;;;;5096303;28;20128;-73
2022/07/18 13:17:39;;;;;;;10.07;3.40;;;26.90;60.70;;;;;;5093414;28;20119;-72
2022/07/18 13:20:05;;;;;;;3.33;2.22;;;27.00;58.90;;;;;;5089069;28;20127;-72
2022/07/18 13:22:37;;;;;;;5.32;3.20;;;27.00;59.40;;;;;;5088509;28;20176;-73
2022/07/18 13:25:08;;;;;;;5.30;2.47;;;27.10;59.10;;;;;;5094282;28;20110;-74
2022/07/18 13:27:35;;;;;;;3.58;2.30;;;;;;;;;;5085780;28;20511;-74
2022/07/18 13:30:01;;;;;;;4.95;2.45;;;;;;;;;;5093184;28;20028;-73
2022/07/18 13:32:30;;;;;;;4.13;2.38;;;;;;;;;;5093480;28;20036;-72
2022/07/18 13:34:57;;;;;;;8.10;3.42;;;;;;;;;;5094107;28;20084;-73
2022/07/18 13:37:23;;;;;;;4.47;2.00;;;;;;;;;;5089277;28;20052;-72
2022/07/18 13:39:49;;;;;;;5.35;2.53;;;;;;;;;;5090709;28;20081;-73
2022/07/18 13:42:16;;;;;;;4.15;2.70;;;;;;;;;;5087384;28;20036;-72
2022/07/18 13:44:44;;;;;;;4.20;2.05;;;;;;;;;;5109088;28;20060;-73
2022/07/18 13:47:12;;;;;;;5.70;2.67;;;;;;;;;;5094699;28;20513;-73
2022/07/18 13:49:38;;;;;;;5.03;2.35;;;;;;;;;;5090769;28;20250;-73
2022/07/18 13:52:04;;;;;;;2.88;2.10;;;;;;;;;;5096096;28;20040;-72
2022/07/18 13:54:30;;;;;;;5.32;2.45;;;;;;;;;;5076207;28;20044;-73
2022/07/18 13:56:57;;;;;;;4.93;2.60;;;;;;;;;;5095457;28;20170;-72
2022/07/18 13:59:23;;;;;;;7.63;3.42;;;;;;;;;;5096868;28;20040;-71
2022/07/18 14:01:49;;;;;;;4.43;2.20;;;;;;;;;;5093473;28;20123;-72
2022/07/18 14:04:17;;;;;;;4.45;2.70;;;;;;;;;;5091235;28;20032;-72
2022/07/18 14:06:43;;;;;;;4.63;2.80;;;;;;;;;;5078865;28;20354;-72
2022/07/18 14:09:10;;;;;;;3.10;2.17;;;;;;;;;;5096425;28;20093;-72
2022/07/18 14:11:36;;;;;;;4.25;2.22;;;;;;;;;;5096266;28;20039;-72
2022/07/18 14:14:03;;;;;;;3.25;2.10;;;27.20;58.50;;;;;;5093401;28;20123;-72
2022/07/18 14:16:30;;;;;;;3.83;2.22;;;27.50;53.90;;;;;;5096945;28;20050;-72
2022/07/18 14:18:56;;;;;;;4.78;2.20;;;27.40;53.70;;;;;;5083327;28;20166;-73
2022/07/18 14:21:22;;;;;;;4.75;2.45;;;27.50;53.10;;;;;;5096431;28;20560;-72
2022/07/18 14:23:48;;;;;;;7.27;2.40;;;27.50;53.10;;;;;;5095461;28;20044;-72
2022/07/18 14:26:14;;;;;;;2.75;1.95;;;27.60;52.20;;;;;;5096051;28;20039;-72
2022/07/18 14:28:40;;;;;;;5.07;3.55;;;27.60;52.60;;;;;;5088005;28;20032;-72
2022/07/18 14:31:06;;;;;;;6.97;2.92;;;27.60;50.70;;;;;;5093110;28;20036;-72
2022/07/18 14:33:32;;;;;;;4.65;2.55;;;27.60;50.50;;;;;;5091757;28;20047;-72
2022/07/18 14:35:58;;;;;;;4.35;2.42;;;27.60;50.70;;;;;;5097910;28;20542;-72
2022/07/18 14:38:23;;;;;;;5.85;3.05;;;27.60;50.90;;;;;;5098015;28;20292;-73